sensor_id;sensor_type;location;lat;lon;timestamp;pressure;altitude;pressure_sealevel;temperature;humidity
71666;BME280;59503;53.486;10.196;2023-04-08T00:02:18;102408.25;;;5.24;100.00
71666;BME280;59503;53.486;10.196;2023-04-08T00:04:44;102405.50;;;5.29;100.00
71666;BME280;59503;53.486;10.196;2023-04-08T00:07:09;102417.25;;;5.38;100.00
71666;BME280;59503;53.486;10.196;2023-04-08T00:09:35;102407.69;;;5.27;100.00
71666;BME280;59503;53.486;10.196;2023-04-08T00:12:00;102410.03;;;5.34;100.00
71666;BME280;59503;53.486;10.196;2023-04-08T00:14:26;102412.50;;;5.30;100.00
71666;BME280;59503;53.486;10.196;2023-04-08T00:16:51;102408.94;;;5.35;100.00
71666;BME280;59503;53.486;10.196;2023-04-08T00:19:17;102407.97;;;5.26;100.00
71666;BME280;59503;53.486;10.196;2023-04-08T00:21:42;102404.47;;;5.25;100.00
71666;BME280;59503;53.486;10.196;2023-04-08T00:24:08;102403.13;;;5.23;100.00
71666;BME280;59503;53.486;10.196;2023-04-08T00:26:33;102403.66;;;5.25;100.00
71666;BME280;59503;53.486;10.196;2023-04-08T00:29:00;102402.56;;;5.26;100.00
71666;BME280;59503;53.486;10.196;2023-04-08T00:31:25;102414.38;;;5.30;100.00
71666;BME280;59503;53.486;10.196;2023-04-08T00:33:51;102402.88;;;5.24;100.00
71666;BME280;59503;53.486;10.196;2023-04-08T00:36:16;102411.22;;;5.23;100.00
71666;BME280;59503;53.486;10.196;2023-04-08T00:38:43;102406.88;;;5.27;100.00
71666;BME280;59503;53.486;10.196;2023-04-08T00:41:08;102410.09;;;5.29;100.00
71666;BME280;59503;53.486;10.196;2023-04-08T00:43:34;102406.63;;;5.23;100.00
71666;BME280;59503;53.486;10.196;2023-04-08T00:46:00;102406.38;;;5.20;100.00
71666;BME280;59503;53.486;10.196;2023-04-08T00:48:25;102404.22;;;5.22;100.00
71666;BME280;59503;53.486;10.196;2023-04-08T00:50:51;102415.25;;;5.25;100.00
71666;BME280;59503;53.486;10.196;2023-04-08T00:53:18;102410.31;;;5.32;100.00
71666;BME280;59503;53.486;10.196;2023-04-08T00:55:43;102408.94;;;5.35;100.00
71666;BME280;59503;53.486;10.196;2023-04-08T00:58:10;102411.22;;;5.46;100.00
71666;BME280;59503;53.486;10.196;2023-04-08T01:00:39;102406.94;;;5.45;100.00
71666;BME280;59503;53.486;10.196;2023-04-08T01:03:15;102408.34;;;5.38;100.00
71666;BME280;59503;53.486;10.196;2023-04-08T01:06:37;102408.16;;;5.34;100.00
71666;BME280;59503;53.486;10.196;2023-04-08T01:08:37;102412.38;;;5.40;100.00
71666;BME280;59503;53.486;10.196;2023-04-08T01:11:06;102415.31;;;5.44;100.00
71666;BME280;59503;53.486;10.196;2023-04-08T01:13:36;102415.13;;;5.35;100.00
71666;BME280;59503;53.486;10.196;2023-04-08T01:16:04;102414.91;;;5.55;100.00
71666;BME280;59503;53.486;10.196;2023-04-08T01:18:30;102410.69;;;5.49;100.00
71666;BME280;59503;53.486;10.196;2023-04-08T01:20:57;102410.50;;;5.41;100.00
71666;BME280;59503;53.486;10.196;2023-04-08T01:23:38;102412.16;;;5.37;100.00
71666;BME280;59503;53.486;10.196;2023-04-08T01:26:05;102407.56;;;5.37;100.00
71666;BME280;59503;53.486;10.196;2023-04-08T01:28:31;102410.22;;;5.42;100.00
71666;BME280;59503;53.486;10.196;2023-04-08T01:30:59;102413.47;;;5.39;100.00
71666;BME280;59503;53.486;10.196;2023-04-08T01:33:26;102419.94;;;5.38;100.00
71666;BME280;59503;53.486;10.196;2023-04-08T01:35:53;102411.00;;;5.43;100.00
71666;BME280;59503;53.486;10.196;2023-04-08T01:38:19;102395.03;;;5.46;100.00
71666;BME280;59503;53.486;10.196;2023-04-08T01:40:47;102398.25;;;5.48;100.00
71666;BME280;59503;53.486;10.196;2023-04-08T01:43:15;102403.38;;;5.50;100.00
71666;BME280;59503;53.486;10.196;2023-04-08T01:45:43;102397.50;;;5.43;100.00
71666;BME280;59503;53.486;10.196;2023-04-08T01:48:11;102401.03;;;5.43;100.00
71666;BME280;59503;53.486;10.196;2023-04-08T01:50:39;102398.97;;;5.35;100.00
71666;BME280;59503;53.486;10.196;2023-04-08T01:53:08;102396.78;;;5.37;100.00
71666;BME280;59503;53.486;10.196;2023-04-08T01:55:34;102383.81;;;5.39;100.00
71666;BME280;59503;53.486;10.196;2023-04-08T01:58:01;102383.78;;;5.44;100.00
71666;BME280;59503;53.486;10.196;2023-04-08T02:00:30;102382.44;;;5.42;100.00
71666;BME280;59503;53.486;10.196;2023-04-08T02:02:57;102386.47;;;5.44;100.00
71666;BME280;59503;53.486;10.196;2023-04-08T02:05:22;102378.09;;;5.46;100.00
71666;BME280;59503;53.486;10.196;2023-04-08T02:07:48;102370.84;;;5.41;100.00
71666;BME280;59503;53.486;10.196;2023-04-08T02:10:14;102373.03;;;5.39;100.00
71666;BME280;59503;53.486;10.196;2023-04-08T02:12:41;102383.13;;;5.52;100.00
71666;BME280;59503;53.486;10.196;2023-04-08T02:15:08;102376.69;;;5.48;100.00
71666;BME280;59503;53.486;10.196;2023-04-08T02:20:33;102373.25;;;5.43;100.00
71666;BME280;59503;53.486;10.196;2023-04-08T02:23:09;102377.34;;;5.40;100.00
71666;BME280;59503;53.486;10.196;2023-04-08T02:25:41;102393.09;;;5.52;100.00
71666;BME280;59503;53.486;10.196;2023-04-08T02:28:09;102392.34;;;5.46;100.00
71666;BME280;59503;53.486;10.196;2023-04-08T02:30:36;102392.75;;;5.58;100.00
71666;BME280;59503;53.486;10.196;2023-04-08T02:33:06;102395.97;;;5.60;100.00
71666;BME280;59503;53.486;10.196;2023-04-08T02:35:32;102393.69;;;5.49;100.00
71666;BME280;59503;53.486;10.196;2023-04-08T02:37:58;102390.22;;;5.43;100.00
71666;BME280;59503;53.486;10.196;2023-04-08T02:40:29;102395.03;;;5.46;100.00
71666;BME280;59503;53.486;10.196;2023-04-08T02:42:55;102394.81;;;5.43;100.00
71666;BME280;59503;53.486;10.196;2023-04-08T02:45:21;102397.75;;;5.46;100.00
71666;BME280;59503;53.486;10.196;2023-04-08T02:47:47;102385.31;;;5.50;100.00
71666;BME280;59503;53.486;10.196;2023-04-08T02:50:12;102391.34;;;5.42;100.00
71666;BME280;59503;53.486;10.196;2023-04-08T02:52:38;102394.28;;;5.46;100.00
71666;BME280;59503;53.486;10.196;2023-04-08T02:55:04;102402.66;;;5.44;100.00
71666;BME280;59503;53.486;10.196;2023-04-08T02:57:31;102396.72;;;5.42;100.00
71666;BME280;59503;53.486;10.196;2023-04-08T02:59:56;102398.63;;;5.42;100.00
71666;BME280;59503;53.486;10.196;2023-04-08T03:02:22;102399.44;;;5.42;100.00
71666;BME280;59503;53.486;10.196;2023-04-08T03:04:47;102408.63;;;5.36;100.00
71666;BME280;59503;53.486;10.196;2023-04-08T03:07:13;102404.88;;;5.37;100.00
71666;BME280;59503;53.486;10.196;2023-04-08T03:09:38;102407.09;;;5.30;100.00
71666;BME280;59503;53.486;10.196;2023-04-08T03:12:04;102407.09;;;5.30;100.00
71666;BME280;59503;53.486;10.196;2023-04-08T03:14:29;102406.56;;;5.28;100.00
71666;BME280;59503;53.486;10.196;2023-04-08T03:16:55;102403.31;;;5.31;100.00
71666;BME280;59503;53.486;10.196;2023-04-08T03:19:20;102417.78;;;5.40;100.00
71666;BME280;59503;53.486;10.196;2023-04-08T03:21:45;102419.38;;;5.41;100.00
71666;BME280;59503;53.486;10.196;2023-04-08T03:24:11;102422.06;;;5.41;100.00
71666;BME280;59503;53.486;10.196;2023-04-08T03:26:37;102422.94;;;5.37;100.00
71666;BME280;59503;53.486;10.196;2023-04-08T03:29:02;102424.28;;;5.39;100.00
71666;BME280;59503;53.486;10.196;2023-04-08T03:31:28;102418.66;;;5.36;100.00
71666;BME280;59503;53.486;10.196;2023-04-08T03:33:53;102431.78;;;5.42;100.00
71666;BME280;59503;53.486;10.196;2023-04-08T03:36:18;102423.31;;;5.25;100.00
71666;BME280;59503;53.486;10.196;2023-04-08T03:38:44;102420.06;;;5.28;100.00
71666;BME280;59503;53.486;10.196;2023-04-08T03:41:09;102423.28;;;5.30;100.00
71666;BME280;59503;53.486;10.196;2023-04-08T03:43:35;102432.00;;;5.22;100.00
71666;BME280;59503;53.486;10.196;2023-04-08T03:46:01;102429.81;;;5.24;100.00
71666;BME280;59503;53.486;10.196;2023-04-08T03:48:26;102431.50;;;5.15;100.00
71666;BME280;59503;53.486;10.196;2023-04-08T03:50:52;102436.63;;;5.17;100.00
71666;BME280;59503;53.486;10.196;2023-04-08T03:53:17;102434.16;;;5.20;100.00
71666;BME280;59503;53.486;10.196;2023-04-08T03:55:43;102432.31;;;5.16;100.00
71666;BME280;59503;53.486;10.196;2023-04-08T03:58:08;102438.00;;;5.14;100.00
71666;BME280;59503;53.486;10.196;2023-04-08T04:00:34;102443.97;;;5.06;100.00
71666;BME280;59503;53.486;10.196;2023-04-08T04:03:00;102440.22;;;5.07;100.00
71666;BME280;59503;53.486;10.196;2023-04-08T04:05:25;102441.75;;;5.13;100.00
71666;BME280;59503;53.486;10.196;2023-04-08T04:07:50;102442.09;;;5.06;100.00
71666;BME280;59503;53.486;10.196;2023-04-08T04:10:16;102448.84;;;5.04;100.00
71666;BME280;59503;53.486;10.196;2023-04-08T04:12:41;102447.78;;;5.05;100.00
71666;BME280;59503;53.486;10.196;2023-04-08T04:15:09;102446.38;;;5.07;100.00
71666;BME280;59503;53.486;10.196;2023-04-08T04:17:34;102453.75;;;5.02;100.00
71666;BME280;59503;53.486;10.196;2023-04-08T04:20:03;102457.25;;;4.97;100.00
71666;BME280;59503;53.486;10.196;2023-04-08T04:22:28;102462.88;;;5.01;100.00
71666;BME280;59503;53.486;10.196;2023-04-08T04:24:54;102455.09;;;4.99;100.00
71666;BME280;59503;53.486;10.196;2023-04-08T04:27:19;102464.81;;;5.00;100.00
71666;BME280;59503;53.486;10.196;2023-04-08T04:29:45;102476.38;;;5.01;100.00
71666;BME280;59503;53.486;10.196;2023-04-08T04:32:10;102469.13;;;4.96;100.00
71666;BME280;59503;53.486;10.196;2023-04-08T04:34:36;102464.22;;;5.03;100.00
71666;BME280;59503;53.486;10.196;2023-04-08T04:37:01;102485.53;;;5.00;100.00
71666;BME280;59503;53.486;10.196;2023-04-08T04:39:27;102479.63;;;4.98;100.00
71666;BME280;59503;53.486;10.196;2023-04-08T04:41:52;102485.22;;;5.06;100.00
71666;BME280;59503;53.486;10.196;2023-04-08T04:44:17;102487.66;;;5.03;100.00
71666;BME280;59503;53.486;10.196;2023-04-08T04:46:43;102488.25;;;5.00;100.00
71666;BME280;59503;53.486;10.196;2023-04-08T04:49:09;102487.47;;;4.94;100.00
71666;BME280;59503;53.486;10.196;2023-04-08T04:51:35;102489.59;;;4.97;100.00
71666;BME280;59503;53.486;10.196;2023-04-08T04:54:00;102485.25;;;5.01;100.00
71666;BME280;59503;53.486;10.196;2023-04-08T04:56:26;102483.72;;;4.95;100.00
71666;BME280;59503;53.486;10.196;2023-04-08T04:58:52;102486.16;;;4.92;100.00
71666;BME280;59503;53.486;10.196;2023-04-08T05:01:17;102480.25;;;4.90;100.00
71666;BME280;59503;53.486;10.196;2023-04-08T05:03:43;102476.72;;;4.89;100.00
71666;BME280;59503;53.486;10.196;2023-04-08T05:06:08;102491.75;;;5.00;100.00
71666;BME280;59503;53.486;10.196;2023-04-08T05:08:34;102482.84;;;5.00;100.00
71666;BME280;59503;53.486;10.196;2023-04-08T05:10:59;102490.16;;;4.94;100.00
71666;BME280;59503;53.486;10.196;2023-04-08T05:13:29;102488.97;;;5.11;100.00
71666;BME280;59503;53.486;10.196;2023-04-08T05:15:56;102495.19;;;5.06;100.00
71666;BME280;59503;53.486;10.196;2023-04-08T05:18:21;102502.75;;;5.04;100.00
71666;BME280;59503;53.486;10.196;2023-04-08T05:20:47;102511.28;;;5.16;100.00
71666;BME280;59503;53.486;10.196;2023-04-08T05:23:12;102509.69;;;5.15;100.00
71666;BME280;59503;53.486;10.196;2023-04-08T05:25:38;102511.31;;;5.11;100.00
71666;BME280;59503;53.486;10.196;2023-04-08T05:28:03;102518.06;;;5.14;100.00
71666;BME280;59503;53.486;10.196;2023-04-08T05:30:29;102518.09;;;5.08;100.00
71666;BME280;59503;53.486;10.196;2023-04-08T05:32:54;102523.97;;;5.16;100.00
71666;BME280;59503;53.486;10.196;2023-04-08T05:35:20;102510.50;;;5.16;100.00
71666;BME280;59503;53.486;10.196;2023-04-08T05:37:45;102524.44;;;5.23;100.00
71666;BME280;59503;53.486;10.196;2023-04-08T05:40:11;102521.31;;;5.11;100.00
71666;BME280;59503;53.486;10.196;2023-04-08T05:42:36;102518.63;;;5.11;100.00
71666;BME280;59503;53.486;10.196;2023-04-08T05:45:02;102525.81;;;5.20;100.00
71666;BME280;59503;53.486;10.196;2023-04-08T05:47:28;102530.19;;;5.11;100.00
71666;BME280;59503;53.486;10.196;2023-04-08T05:49:53;102535.03;;;5.14;100.00
71666;BME280;59503;53.486;10.196;2023-04-08T05:52:19;102535.00;;;5.19;100.00
71666;BME280;59503;53.486;10.196;2023-04-08T05:54:44;102531.50;;;5.19;100.00
71666;BME280;59503;53.486;10.196;2023-04-08T05:57:10;102533.91;;;5.20;100.00
71666;BME280;59503;53.486;10.196;2023-04-08T05:59:36;102537.78;;;5.38;100.00
71666;BME280;59503;53.486;10.196;2023-04-08T06:02:01;102537.53;;;5.39;100.00
71666;BME280;59503;53.486;10.196;2023-04-08T06:04:27;102539.69;;;5.37;100.00
71666;BME280;59503;53.486;10.196;2023-04-08T06:06:52;102545.47;;;5.26;100.00
71666;BME280;59503;53.486;10.196;2023-04-08T06:09:18;102534.38;;;5.27;100.00
71666;BME280;59503;53.486;10.196;2023-04-08T06:11:43;102548.16;;;5.26;100.00
71666;BME280;59503;53.486;10.196;2023-04-08T06:14:11;102556.69;;;5.33;100.00
71666;BME280;59503;53.486;10.196;2023-04-08T06:16:37;102555.38;;;5.30;100.00
71666;BME280;59503;53.486;10.196;2023-04-08T06:19:02;102550.47;;;5.37;100.00
71666;BME280;59503;53.486;10.196;2023-04-08T06:21:27;102555.81;;;5.42;100.00
71666;BME280;59503;53.486;10.196;2023-04-08T06:23:53;102569.34;;;5.37;100.00
71666;BME280;59503;53.486;10.196;2023-04-08T06:26:19;102560.50;;;5.32;100.00
71666;BME280;59503;53.486;10.196;2023-04-08T06:28:44;102552.19;;;5.23;100.00
71666;BME280;59503;53.486;10.196;2023-04-08T06:31:10;102553.50;;;5.31;100.00
71666;BME280;59503;53.486;10.196;2023-04-08T06:33:36;102554.81;;;5.33;100.00
71666;BME280;59503;53.486;10.196;2023-04-08T06:36:05;102563.69;;;5.39;100.00
71666;BME280;59503;53.486;10.196;2023-04-08T06:38:32;102553.19;;;5.37;100.00
71666;BME280;59503;53.486;10.196;2023-04-08T06:41:05;102557.47;;;5.38;100.00
71666;BME280;59503;53.486;10.196;2023-04-08T06:43:32;102566.19;;;5.59;100.00
71666;BME280;59503;53.486;10.196;2023-04-08T06:45:57;102562.69;;;5.58;100.00
71666;BME280;59503;53.486;10.196;2023-04-08T06:48:23;102572.41;;;5.59;100.00
71666;BME280;59503;53.486;10.196;2023-04-08T06:50:54;102579.16;;;5.57;100.00
71666;BME280;59503;53.486;10.196;2023-04-08T06:53:22;102577.22;;;5.62;100.00
71666;BME280;59503;53.486;10.196;2023-04-08T06:55:48;102576.94;;;5.64;100.00
71666;BME280;59503;53.486;10.196;2023-04-08T06:58:13;102584.22;;;5.63;100.00
71666;BME280;59503;53.486;10.196;2023-04-08T07:00:41;102582.25;;;5.74;100.00
71666;BME280;59503;53.486;10.196;2023-04-08T07:03:06;102584.59;;;5.80;100.00
71666;BME280;59503;53.486;10.196;2023-04-08T07:05:31;102576.16;;;5.92;100.00
71666;BME280;59503;53.486;10.196;2023-04-08T07:07:57;102578.22;;;6.00;100.00
71666;BME280;59503;53.486;10.196;2023-04-08T07:10:22;102584.72;;;6.22;100.00
71666;BME280;59503;53.486;10.196;2023-04-08T07:12:47;102586.63;;;6.22;100.00
71666;BME280;59503;53.486;10.196;2023-04-08T07:15:13;102588.53;;;6.21;100.00
71666;BME280;59503;53.486;10.196;2023-04-08T07:17:38;102571.41;;;6.31;100.00
71666;BME280;59503;53.486;10.196;2023-04-08T07:20:05;102593.66;;;6.47;100.00
71666;BME280;59503;53.486;10.196;2023-04-08T07:22:30;102593.97;;;6.40;100.00
71666;BME280;59503;53.486;10.196;2023-04-08T07:24:56;102597.19;;;6.42;100.00
71666;BME280;59503;53.486;10.196;2023-04-08T07:27:21;102593.75;;;6.37;100.00
71666;BME280;59503;53.486;10.196;2023-04-08T07:29:51;102592.13;;;6.36;100.00
71666;BME280;59503;53.486;10.196;2023-04-08T07:32:17;102601.56;;;6.38;100.00
71666;BME280;59503;53.486;10.196;2023-04-08T07:34:43;102594.91;;;6.30;100.00
71666;BME280;59503;53.486;10.196;2023-04-08T07:37:08;102605.34;;;6.13;100.00
71666;BME280;59503;53.486;10.196;2023-04-08T07:39:34;102605.53;;;6.22;100.00
71666;BME280;59503;53.486;10.196;2023-04-08T07:41:59;102607.44;;;6.21;100.00
71666;BME280;59503;53.486;10.196;2023-04-08T07:44:25;102609.91;;;6.18;100.00
71666;BME280;59503;53.486;10.196;2023-04-08T07:46:50;102614.84;;;6.11;100.00
71666;BME280;59503;53.486;10.196;2023-04-08T07:49:16;102624.19;;;6.18;100.00
71666;BME280;59503;53.486;10.196;2023-04-08T07:51:42;102621.19;;;6.20;100.00
71666;BME280;59503;53.486;10.196;2023-04-08T07:54:07;102631.84;;;6.11;100.00
71666;BME280;59503;53.486;10.196;2023-04-08T07:56:34;102639.25;;;6.24;100.00
71666;BME280;59503;53.486;10.196;2023-04-08T07:59:00;102638.56;;;6.14;100.00
71666;BME280;59503;53.486;10.196;2023-04-08T08:01:25;102643.00;;;6.00;100.00
71666;BME280;59503;53.486;10.196;2023-04-08T08:03:53;102642.69;;;6.06;100.00
71666;BME280;59503;53.486;10.196;2023-04-08T08:06:19;102636.78;;;6.04;100.00
71666;BME280;59503;53.486;10.196;2023-04-08T08:08:46;102638.78;;;6.17;100.00
71666;BME280;59503;53.486;10.196;2023-04-08T08:11:11;102646.25;;;6.25;100.00
71666;BME280;59503;53.486;10.196;2023-04-08T08:13:37;102634.88;;;6.28;100.00
71666;BME280;59503;53.486;10.196;2023-04-08T08:16:02;102644.56;;;6.35;100.00
71666;BME280;59503;53.486;10.196;2023-04-08T08:18:27;102646.03;;;6.46;100.00
71666;BME280;59503;53.486;10.196;2023-04-08T08:20:53;102642.03;;;6.43;100.00
71666;BME280;59503;53.486;10.196;2023-04-08T08:23:18;102649.03;;;6.44;100.00
71666;BME280;59503;53.486;10.196;2023-04-08T08:25:44;102633.41;;;6.65;100.00
71666;BME280;59503;53.486;10.196;2023-04-08T08:28:09;102638.22;;;6.44;100.00
71666;BME280;59503;53.486;10.196;2023-04-08T08:30:34;102637.28;;;6.54;100.00
71666;BME280;59503;53.486;10.196;2023-04-08T08:33:00;102647.91;;;6.50;100.00
71666;BME280;59503;53.486;10.196;2023-04-08T08:35:25;102649.25;;;6.48;100.00
71666;BME280;59503;53.486;10.196;2023-04-08T08:37:51;102653.50;;;6.54;100.00
71666;BME280;59503;53.486;10.196;2023-04-08T08:40:16;102650.09;;;6.48;100.00
71666;BME280;59503;53.486;10.196;2023-04-08T08:42:49;102659.50;;;6.51;100.00
71666;BME280;59503;53.486;10.196;2023-04-08T08:45:18;102660.13;;;6.66;100.00
71666;BME280;59503;53.486;10.196;2023-04-08T08:47:43;102647.97;;;6.64;100.00
71666;BME280;59503;53.486;10.196;2023-04-08T08:50:09;102659.78;;;6.73;100.00
71666;BME280;59503;53.486;10.196;2023-04-08T08:52:35;102656.94;;;6.83;100.00
71666;BME280;59503;53.486;10.196;2023-04-08T08:55:01;102671.63;;;6.77;100.00
71666;BME280;59503;53.486;10.196;2023-04-08T08:57:27;102664.53;;;6.81;100.00
71666;BME280;59503;53.486;10.196;2023-04-08T08:59:52;102663.88;;;6.70;100.00
71666;BME280;59503;53.486;10.196;2023-04-08T09:02:29;102675.47;;;6.71;100.00
71666;BME280;59503;53.486;10.196;2023-04-08T09:04:59;102668.69;;;6.73;100.00
71666;BME280;59503;53.486;10.196;2023-04-08T09:07:27;102675.41;;;6.76;100.00
71666;BME280;59503;53.486;10.196;2023-04-08T09:09:53;102679.03;;;6.90;100.00
71666;BME280;59503;53.486;10.196;2023-04-08T09:12:19;102686.88;;;7.10;100.00
71666;BME280;59503;53.486;10.196;2023-04-08T09:14:45;102694.63;;;7.16;100.00
71666;BME280;59503;53.486;10.196;2023-04-08T09:17:11;102678.91;;;7.00;100.00
71666;BME280;59503;53.486;10.196;2023-04-08T09:20:04;102685.91;;;7.01;100.00
71666;BME280;59503;53.486;10.196;2023-04-08T09:22:57;102694.16;;;7.09;100.00
71666;BME280;59503;53.486;10.196;2023-04-08T09:27:53;102695.66;;;7.20;100.00
71666;BME280;59503;53.486;10.196;2023-04-08T09:30:21;102695.66;;;7.20;100.00
71666;BME280;59503;53.486;10.196;2023-04-08T09:32:50;102700.31;;;7.15;100.00
71666;BME280;59503;53.486;10.196;2023-04-08T09:35:17;102703.41;;;7.27;100.00
71666;BME280;59503;53.486;10.196;2023-04-08T09:37:43;102697.25;;;7.21;100.00
71666;BME280;59503;53.486;10.196;2023-04-08T09:40:08;102704.06;;;7.19;100.00
71666;BME280;59503;53.486;10.196;2023-04-08T09:42:39;102703.56;;;7.17;100.00
71666;BME280;59503;53.486;10.196;2023-04-08T09:45:05;102698.06;;;7.03;100.00
71666;BME280;59503;53.486;10.196;2023-04-08T09:47:39;102708.66;;;7.18;100.00
71666;BME280;59503;53.486;10.196;2023-04-08T09:50:07;102712.03;;;7.10;100.00
71666;BME280;59503;53.486;10.196;2023-04-08T09:52:38;102705.34;;;7.03;100.00
71666;BME280;59503;53.486;10.196;2023-04-08T09:55:08;102703.69;;;7.07;100.00
71666;BME280;59503;53.486;10.196;2023-04-08T09:57:40;102704.94;;;7.14;100.00
71666;BME280;59503;53.486;10.196;2023-04-08T10:00:14;102703.84;;;7.15;100.00
71666;BME280;59503;53.486;10.196;2023-04-08T10:05:31;102705.16;;;7.18;100.00
71666;BME280;59503;53.486;10.196;2023-04-08T10:07:57;102715.03;;;7.27;100.00
71666;BME280;59503;53.486;10.196;2023-04-08T10:10:23;102708.25;;;7.30;100.00
71666;BME280;59503;53.486;10.196;2023-04-08T10:12:50;102708.91;;;7.22;100.00
71666;BME280;59503;53.486;10.196;2023-04-08T10:15:31;102711.91;;;7.20;100.00
71666;BME280;59503;53.486;10.196;2023-04-08T10:25:29;102713.94;;;7.28;100.00
71666;BME280;59503;53.486;10.196;2023-04-08T10:27:55;102718.09;;;7.21;100.00
71666;BME280;59503;53.486;10.196;2023-04-08T10:32:53;102716.13;;;7.26;100.00
71666;BME280;59503;53.486;10.196;2023-04-08T10:38:18;102703.91;;;7.10;100.00
71666;BME280;59503;53.486;10.196;2023-04-08T10:41:09;102706.56;;;7.15;100.00
71666;BME280;59503;53.486;10.196;2023-04-08T10:43:36;102705.81;;;7.28;100.00
71666;BME280;59503;53.486;10.196;2023-04-08T10:46:02;102712.13;;;7.42;100.00
71666;BME280;59503;53.486;10.196;2023-04-08T10:48:29;102711.84;;;7.44;100.00
71666;BME280;59503;53.486;10.196;2023-04-08T10:56:11;102719.44;;;7.42;100.00
71666;BME280;59503;53.486;10.196;2023-04-08T10:58:51;102712.41;;;7.41;100.00
71666;BME280;59503;53.486;10.196;2023-04-08T11:01:17;102712.31;;;7.65;100.00
71666;BME280;59503;53.486;10.196;2023-04-08T11:03:43;102708.97;;;7.73;100.00
71666;BME280;59503;53.486;10.196;2023-04-08T11:06:10;102712.81;;;7.85;100.00
71666;BME280;59503;53.486;10.196;2023-04-08T11:08:36;102722.81;;;7.71;100.00
71666;BME280;59503;53.486;10.196;2023-04-08T11:11:03;102712.25;;;7.70;100.00
71666;BME280;59503;53.486;10.196;2023-04-08T11:13:33;102720.09;;;7.52;100.00
71666;BME280;59503;53.486;10.196;2023-04-08T11:16:00;102721.91;;;7.57;100.00
71666;BME280;59503;53.486;10.196;2023-04-08T11:18:26;102709.06;;;7.49;100.00
71666;BME280;59503;53.486;10.196;2023-04-08T11:20:53;102714.81;;;7.61;100.00
71666;BME280;59503;53.486;10.196;2023-04-08T11:23:19;102719.81;;;7.73;100.00
71666;BME280;59503;53.486;10.196;2023-04-08T11:25:45;102722.84;;;7.85;100.00
71666;BME280;59503;53.486;10.196;2023-04-08T11:28:12;102715.31;;;7.82;100.00
71666;BME280;59503;53.486;10.196;2023-04-08T11:30:41;102713.13;;;7.84;100.00
71666;BME280;59503;53.486;10.196;2023-04-08T11:33:07;102722.50;;;7.91;100.00
71666;BME280;59503;53.486;10.196;2023-04-08T11:35:33;102716.22;;;8.09;100.00
71666;BME280;59503;53.486;10.196;2023-04-08T11:37:59;102702.84;;;7.99;100.00
71666;BME280;59503;53.486;10.196;2023-04-08T11:40:28;102705.19;;;8.06;100.00
71666;BME280;59503;53.486;10.196;2023-04-08T11:42:54;102712.28;;;8.02;100.00
71666;BME280;59503;53.486;10.196;2023-04-08T11:45:21;102714.38;;;8.05;100.00
71666;BME280;59503;53.486;10.196;2023-04-08T11:47:47;102714.69;;;8.03;100.00
71666;BME280;59503;53.486;10.196;2023-04-08T11:50:24;102712.09;;;8.12;100.00
71666;BME280;59503;53.486;10.196;2023-04-08T11:52:51;102716.91;;;8.01;100.00
71666;BME280;59503;53.486;10.196;2023-04-08T11:55:30;102709.22;;;7.90;100.00
71666;BME280;59503;53.486;10.196;2023-04-08T11:58:01;102712.88;;;7.99;100.00
71666;BME280;59503;53.486;10.196;2023-04-08T12:00:27;102703.47;;;8.10;100.00
71666;BME280;59503;53.486;10.196;2023-04-08T12:02:52;102716.13;;;8.14;100.00
71666;BME280;59503;53.486;10.196;2023-04-08T12:05:19;102719.00;;;8.04;100.00
71666;BME280;59503;53.486;10.196;2023-04-08T12:07:45;102730.75;;;8.13;100.00
71666;BME280;59503;53.486;10.196;2023-04-08T12:10:11;102729.44;;;8.29;100.00
71666;BME280;59503;53.486;10.196;2023-04-08T12:12:37;102720.06;;;8.22;100.00
71666;BME280;59503;53.486;10.196;2023-04-08T12:15:03;102726.88;;;8.19;100.00
71666;BME280;59503;53.486;10.196;2023-04-08T12:17:28;102732.25;;;8.24;100.00
71666;BME280;59503;53.486;10.196;2023-04-08T12:19:54;102733.84;;;8.25;100.00
71666;BME280;59503;53.486;10.196;2023-04-08T12:22:19;102734.97;;;8.24;100.00
71666;BME280;59503;53.486;10.196;2023-04-08T12:24:45;102731.16;;;8.39;100.00
71666;BME280;59503;53.486;10.196;2023-04-08T12:27:10;102729.59;;;8.51;100.00
71666;BME280;59503;53.486;10.196;2023-04-08T12:29:36;102733.47;;;8.45;100.00
71666;BME280;59503;53.486;10.196;2023-04-08T12:32:01;102731.69;;;8.54;100.00
71666;BME280;59503;53.486;10.196;2023-04-08T12:34:27;102735.88;;;8.47;100.00
71666;BME280;59503;53.486;10.196;2023-04-08T12:36:53;102733.72;;;8.62;100.00
71666;BME280;59503;53.486;10.196;2023-04-08T12:39:20;102734.81;;;8.61;100.00
71666;BME280;59503;53.486;10.196;2023-04-08T12:41:46;102734.50;;;8.49;100.00
71666;BME280;59503;53.486;10.196;2023-04-08T12:44:12;102741.53;;;8.50;100.00
71666;BME280;59503;53.486;10.196;2023-04-08T12:46:37;102722.50;;;8.23;100.00
71666;BME280;59503;53.486;10.196;2023-04-08T12:49:02;102731.06;;;8.44;100.00
71666;BME280;59503;53.486;10.196;2023-04-08T12:51:28;102732.88;;;8.48;100.00
71666;BME280;59503;53.486;10.196;2023-04-08T12:53:54;102728.78;;;8.51;100.00
71666;BME280;59503;53.486;10.196;2023-04-08T12:56:19;102728.28;;;8.62;100.00
71666;BME280;59503;53.486;10.196;2023-04-08T12:58:45;102731.28;;;8.47;100.00
71666;BME280;59503;53.486;10.196;2023-04-08T13:01:11;102738.13;;;8.45;100.00
71666;BME280;59503;53.486;10.196;2023-04-08T13:03:37;102738.47;;;8.38;100.00
71666;BME280;59503;53.486;10.196;2023-04-08T13:06:02;102741.69;;;8.40;100.00